sensor_id;sensor_type;location;lat;lon;timestamp;P1;durP1;ratioP1;P2;durP2;ratioP2
39322;SDS011;25036;53.638;10.134;2022-12-07T00:00:38;7.60;;;6.90;;
39322;SDS011;25036;53.638;10.134;2022-12-07T00:01:39;7.83;;;7.03;;
39322;SDS011;25036;53.638;10.134;2022-12-07T00:02:39;7.85;;;6.80;;
39322;SDS011;25036;53.638;10.134;2022-12-07T00:03:40;7.13;;;6.43;;
39322;SDS011;25036;53.638;10.134;2022-12-07T00:04:40;7.07;;;6.38;;
39322;SDS011;25036;53.638;10.134;2022-12-07T00:05:40;8.10;;;6.77;;
39322;SDS011;25036;53.638;10.134;2022-12-07T00:06:41;7.77;;;7.07;;
39322;SDS011;25036;53.638;10.134;2022-12-07T00:07:42;7.18;;;6.47;;
39322;SDS011;25036;53.638;10.134;2022-12-07T00:08:42;6.93;;;5.87;;
39322;SDS011;25036;53.638;10.134;2022-12-07T00:09:43;8.98;;;7.18;;
39322;SDS011;25036;53.638;10.134;2022-12-07T00:10:43;7.40;;;6.67;;
39322;SDS011;25036;53.638;10.134;2022-12-07T00:11:43;7.07;;;6.47;;
39322;SDS011;25036;53.638;10.134;2022-12-07T00:12:44;7.30;;;6.38;;
39322;SDS011;25036;53.638;10.134;2022-12-07T00:13:44;7.07;;;6.37;;
39322;SDS011;25036;53.638;10.134;2022-12-07T00:14:45;7.15;;;6.22;;
39322;SDS011;25036;53.638;10.134;2022-12-07T00:15:46;7.32;;;6.70;;
39322;SDS011;25036;53.638;10.134;2022-12-07T00:16:48;7.80;;;7.00;;
39322;SDS011;25036;53.638;10.134;2022-12-07T00:17:48;7.05;;;6.43;;
39322;SDS011;25036;53.638;10.134;2022-12-07T00:18:48;7.07;;;6.40;;
39322;SDS011;25036;53.638;10.134;2022-12-07T00:19:48;7.77;;;6.53;;
39322;SDS011;25036;53.638;10.134;2022-12-07T00:20:49;7.50;;;6.70;;
39322;SDS011;25036;53.638;10.134;2022-12-07T00:21:49;8.27;;;6.63;;
39322;SDS011;25036;53.638;10.134;2022-12-07T00:22:49;7.22;;;6.53;;
39322;SDS011;25036;53.638;10.134;2022-12-07T00:23:50;7.27;;;6.60;;
39322;SDS011;25036;53.638;10.134;2022-12-07T00:24:50;7.32;;;6.60;;
39322;SDS011;25036;53.638;10.134;2022-12-07T00:25:50;7.88;;;7.07;;
39322;SDS011;25036;53.638;10.134;2022-12-07T00:26:50;7.80;;;6.53;;
39322;SDS011;25036;53.638;10.134;2022-12-07T00:27:52;6.63;;;5.83;;
39322;SDS011;25036;53.638;10.134;2022-12-07T00:28:53;7.35;;;6.25;;
39322;SDS011;25036;53.638;10.134;2022-12-07T00:29:54;8.07;;;6.55;;
39322;SDS011;25036;53.638;10.134;2022-12-07T00:30:59;8.03;;;7.00;;
39322;SDS011;25036;53.638;10.134;2022-12-07T00:31:59;7.82;;;7.05;;
39322;SDS011;25036;53.638;10.134;2022-12-07T00:32:59;7.07;;;6.33;;
39322;SDS011;25036;53.638;10.134;2022-12-07T00:34:00;7.43;;;6.70;;
39322;SDS011;25036;53.638;10.134;2022-12-07T00:35:00;7.65;;;6.82;;
39322;SDS011;25036;53.638;10.134;2022-12-07T00:36:00;7.60;;;6.83;;
39322;SDS011;25036;53.638;10.134;2022-12-07T00:37:01;8.68;;;6.97;;
39322;SDS011;25036;53.638;10.134;2022-12-07T00:38:01;8.88;;;6.85;;
39322;SDS011;25036;53.638;10.134;2022-12-07T00:39:02;9.48;;;6.72;;
39322;SDS011;25036;53.638;10.134;2022-12-07T00:40:02;8.20;;;6.75;;
39322;SDS011;25036;53.638;10.134;2022-12-07T00:42:08;7.70;;;6.90;;
39322;SDS011;25036;53.638;10.134;2022-12-07T00:43:09;7.97;;;7.18;;
39322;SDS011;25036;53.638;10.134;2022-12-07T00:44:09;8.03;;;7.23;;
39322;SDS011;25036;53.638;10.134;2022-12-07T00:45:09;8.18;;;7.38;;
39322;SDS011;25036;53.638;10.134;2022-12-07T00:46:09;8.30;;;7.13;;
39322;SDS011;25036;53.638;10.134;2022-12-07T00:47:10;7.60;;;6.90;;
39322;SDS011;25036;53.638;10.134;2022-12-07T00:48:10;7.22;;;6.50;;
39322;SDS011;25036;53.638;10.134;2022-12-07T00:49:10;7.83;;;7.07;;
39322;SDS011;25036;53.638;10.134;2022-12-07T00:50:10;7.55;;;6.85;;
39322;SDS011;25036;53.638;10.134;2022-12-07T00:51:11;6.70;;;6.10;;
39322;SDS011;25036;53.638;10.134;2022-12-07T00:52:12;6.95;;;6.35;;
39322;SDS011;25036;53.638;10.134;2022-12-07T00:53:12;7.33;;;6.60;;
39322;SDS011;25036;53.638;10.134;2022-12-07T00:54:12;7.90;;;6.95;;
39322;SDS011;25036;53.638;10.134;2022-12-07T00:55:12;7.47;;;6.67;;
39322;SDS011;25036;53.638;10.134;2022-12-07T00:56:13;6.93;;;6.32;;
39322;SDS011;25036;53.638;10.134;2022-12-07T00:57:14;6.95;;;6.25;;
39322;SDS011;25036;53.638;10.134;2022-12-07T00:58:15;7.53;;;6.73;;
39322;SDS011;25036;53.638;10.134;2022-12-07T00:59:15;7.07;;;6.38;;
39322;SDS011;25036;53.638;10.134;2022-12-07T01:00:15;8.02;;;7.22;;
39322;SDS011;25036;53.638;10.134;2022-12-07T01:01:15;6.93;;;6.07;;
39322;SDS011;25036;53.638;10.134;2022-12-07T01:02:15;6.90;;;6.20;;
39322;SDS011;25036;53.638;10.134;2022-12-07T01:03:16;7.03;;;6.33;;
39322;SDS011;25036;53.638;10.134;2022-12-07T01:04:16;7.03;;;6.32;;
39322;SDS011;25036;53.638;10.134;2022-12-07T01:05:16;6.43;;;5.83;;
39322;SDS011;25036;53.638;10.134;2022-12-07T01:06:17;7.57;;;6.37;;
39322;SDS011;25036;53.638;10.134;2022-12-07T01:07:17;6.97;;;6.28;;
39322;SDS011;25036;53.638;10.134;2022-12-07T01:08:17;7.07;;;6.40;;
39322;SDS011;25036;53.638;10.134;2022-12-07T01:09:18;7.20;;;6.20;;
39322;SDS011;25036;53.638;10.134;2022-12-07T01:10:18;7.57;;;6.37;;
39322;SDS011;25036;53.638;10.134;2022-12-07T01:11:20;6.00;;;5.40;;
39322;SDS011;25036;53.638;10.134;2022-12-07T01:12:20;6.70;;;6.10;;
39322;SDS011;25036;53.638;10.134;2022-12-07T01:13:20;6.23;;;5.57;;
39322;SDS011;25036;53.638;10.134;2022-12-07T01:14:20;5.63;;;5.13;;
39322;SDS011;25036;53.638;10.134;2022-12-07T01:15:21;7.60;;;6.40;;
39322;SDS011;25036;53.638;10.134;2022-12-07T01:16:22;7.03;;;5.47;;
39322;SDS011;25036;53.638;10.134;2022-12-07T01:17:22;6.50;;;5.90;;
39322;SDS011;25036;53.638;10.134;2022-12-07T01:18:22;5.88;;;5.28;;
39322;SDS011;25036;53.638;10.134;2022-12-07T01:19:22;7.43;;;5.50;;
39322;SDS011;25036;53.638;10.134;2022-12-07T01:20:23;5.90;;;5.30;;
39322;SDS011;25036;53.638;10.134;2022-12-07T01:21:27;6.30;;;5.70;;
39322;SDS011;25036;53.638;10.134;2022-12-07T01:22:27;7.60;;;5.53;;
39322;SDS011;25036;53.638;10.134;2022-12-07T01:23:28;8.33;;;5.83;;
39322;SDS011;25036;53.638;10.134;2022-12-07T01:24:28;5.40;;;4.90;;
39322;SDS011;25036;53.638;10.134;2022-12-07T01:25:28;6.17;;;5.53;;
39322;SDS011;25036;53.638;10.134;2022-12-07T01:26:28;7.80;;;4.85;;
39322;SDS011;25036;53.638;10.134;2022-12-07T01:27:28;7.63;;;5.60;;
39322;SDS011;25036;53.638;10.134;2022-12-07T01:28:29;5.80;;;4.80;;
39322;SDS011;25036;53.638;10.134;2022-12-07T01:29:29;5.55;;;5.03;;
39322;SDS011;25036;53.638;10.134;2022-12-07T01:30:29;5.03;;;4.53;;
39322;SDS011;25036;53.638;10.134;2022-12-07T01:31:30;5.30;;;4.80;;
39322;SDS011;25036;53.638;10.134;2022-12-07T01:32:30;5.03;;;4.50;;
39322;SDS011;25036;53.638;10.134;2022-12-07T01:33:32;5.18;;;4.45;;
39322;SDS011;25036;53.638;10.134;2022-12-07T01:34:32;5.53;;;4.65;;
39322;SDS011;25036;53.638;10.134;2022-12-07T01:35:33;6.90;;;4.23;;
39322;SDS011;25036;53.638;10.134;2022-12-07T01:36:34;5.30;;;4.80;;
39322;SDS011;25036;53.638;10.134;2022-12-07T01:37:35;4.53;;;4.13;;
39322;SDS011;25036;53.638;10.134;2022-12-07T01:38:35;5.15;;;4.65;;
39322;SDS011;25036;53.638;10.134;2022-12-07T01:39:36;5.83;;;4.77;;
39322;SDS011;25036;53.638;10.134;2022-12-07T01:40:36;5.40;;;4.27;;
39322;SDS011;25036;53.638;10.134;2022-12-07T01:41:37;6.90;;;4.70;;
39322;SDS011;25036;53.638;10.134;2022-12-07T01:42:40;5.15;;;4.65;;
39322;SDS011;25036;53.638;10.134;2022-12-07T01:46:17;4.40;;;4.00;;
39322;SDS011;25036;53.638;10.134;2022-12-07T01:47:17;4.23;;;3.73;;
39322;SDS011;25036;53.638;10.134;2022-12-07T01:48:18;5.03;;;3.80;;
39322;SDS011;25036;53.638;10.134;2022-12-07T01:49:42;4.70;;;4.13;;
39322;SDS011;25036;53.638;10.134;2022-12-07T01:50:41;4.68;;;4.18;;
39322;SDS011;25036;53.638;10.134;2022-12-07T01:51:43;6.00;;;3.92;;
39322;SDS011;25036;53.638;10.134;2022-12-07T01:52:45;6.00;;;4.13;;
39322;SDS011;25036;53.638;10.134;2022-12-07T01:53:48;4.93;;;3.90;;
39322;SDS011;25036;53.638;10.134;2022-12-07T01:54:49;4.30;;;3.63;;
39322;SDS011;25036;53.638;10.134;2022-12-07T01:55:50;5.72;;;3.72;;
39322;SDS011;25036;53.638;10.134;2022-12-07T01:56:52;3.90;;;3.47;;
39322;SDS011;25036;53.638;10.134;2022-12-07T01:57:53;5.32;;;4.78;;
39322;SDS011;25036;53.638;10.134;2022-12-07T01:58:54;4.15;;;3.65;;
39322;SDS011;25036;53.638;10.134;2022-12-07T01:59:54;4.78;;;3.75;;
39322;SDS011;25036;53.638;10.134;2022-12-07T02:00:55;5.20;;;4.05;;
39322;SDS011;25036;53.638;10.134;2022-12-07T02:01:55;4.60;;;4.10;;
39322;SDS011;25036;53.638;10.134;2022-12-07T02:03:04;7.60;;;4.05;;
39322;SDS011;25036;53.638;10.134;2022-12-07T02:04:05;4.82;;;4.13;;
39322;SDS011;25036;53.638;10.134;2022-12-07T02:05:05;4.65;;;3.35;;
39322;SDS011;25036;53.638;10.134;2022-12-07T02:06:06;4.30;;;3.90;;
39322;SDS011;25036;53.638;10.134;2022-12-07T02:07:07;4.95;;;3.58;;
39322;SDS011;25036;53.638;10.134;2022-12-07T02:08:07;4.47;;;3.90;;
39322;SDS011;25036;53.638;10.134;2022-12-07T02:09:08;4.57;;;4.13;;
39322;SDS011;25036;53.638;10.134;2022-12-07T02:10:16;5.30;;;3.53;;
39322;SDS011;25036;53.638;10.134;2022-12-07T02:11:16;4.25;;;3.85;;
39322;SDS011;25036;53.638;10.134;2022-12-07T02:12:17;3.75;;;3.40;;
39322;SDS011;25036;53.638;10.134;2022-12-07T02:13:22;5.70;;;3.90;;
39322;SDS011;25036;53.638;10.134;2022-12-07T02:14:23;4.40;;;3.60;;
39322;SDS011;25036;53.638;10.134;2022-12-07T02:15:25;5.63;;;3.70;;
39322;SDS011;25036;53.638;10.134;2022-12-07T02:21:20;6.40;;;3.25;;
39322;SDS011;25036;53.638;10.134;2022-12-07T02:23:49;4.18;;;2.90;;
39322;SDS011;25036;53.638;10.134;2022-12-07T02:24:52;4.22;;;3.47;;
39322;SDS011;25036;53.638;10.134;2022-12-07T02:28:16;3.40;;;3.10;;
39322;SDS011;25036;53.638;10.134;2022-12-07T02:30:22;6.25;;;3.35;;
39322;SDS011;25036;53.638;10.134;2022-12-07T02:31:23;4.07;;;3.55;;
39322;SDS011;25036;53.638;10.134;2022-12-07T02:33:50;4.70;;;3.10;;
39322;SDS011;25036;53.638;10.134;2022-12-07T02:34:57;3.45;;;2.90;;
39322;SDS011;25036;53.638;10.134;2022-12-07T02:35:59;3.28;;;2.38;;
39322;SDS011;25036;53.638;10.134;2022-12-07T02:37:03;3.22;;;2.78;;
39322;SDS011;25036;53.638;10.134;2022-12-07T02:39:06;5.50;;;3.00;;
39322;SDS011;25036;53.638;10.134;2022-12-07T02:40:11;3.40;;;2.80;;
39322;SDS011;25036;53.638;10.134;2022-12-07T02:41:19;2.97;;;2.67;;
39322;SDS011;25036;53.638;10.134;2022-12-07T02:42:23;3.30;;;2.65;;
39322;SDS011;25036;53.638;10.134;2022-12-07T02:43:26;4.10;;;2.70;;
39322;SDS011;25036;53.638;10.134;2022-12-07T02:44:27;3.95;;;2.50;;
39322;SDS011;25036;53.638;10.134;2022-12-07T02:45:28;4.25;;;2.42;;
39322;SDS011;25036;53.638;10.134;2022-12-07T02:46:30;2.60;;;2.40;;
39322;SDS011;25036;53.638;10.134;2022-12-07T02:47:30;2.05;;;1.65;;
39322;SDS011;25036;53.638;10.134;2022-12-07T02:48:31;2.67;;;2.00;;
39322;SDS011;25036;53.638;10.134;2022-12-07T02:49:32;3.65;;;2.25;;
39322;SDS011;25036;53.638;10.134;2022-12-07T02:50:33;3.70;;;2.25;;
39322;SDS011;25036;53.638;10.134;2022-12-07T02:51:33;2.77;;;2.47;;
39322;SDS011;25036;53.638;10.134;2022-12-07T02:52:33;3.65;;;2.20;;
39322;SDS011;25036;53.638;10.134;2022-12-07T02:54:34;2.30;;;1.70;;
39322;SDS011;25036;53.638;10.134;2022-12-07T02:55:36;2.60;;;1.90;;
39322;SDS011;25036;53.638;10.134;2022-12-07T02:57:53;2.63;;;2.28;;
39322;SDS011;25036;53.638;10.134;2022-12-07T02:59:14;3.83;;;2.30;;
39322;SDS011;25036;53.638;10.134;2022-12-07T03:00:19;2.47;;;1.75;;
39322;SDS011;25036;53.638;10.134;2022-12-07T03:01:28;3.53;;;2.10;;
39322;SDS011;25036;53.638;10.134;2022-12-07T03:02:35;2.63;;;1.90;;
39322;SDS011;25036;53.638;10.134;2022-12-07T03:03:36;2.22;;;1.90;;
39322;SDS011;25036;53.638;10.134;2022-12-07T03:05:59;4.00;;;2.05;;
39322;SDS011;25036;53.638;10.134;2022-12-07T03:07:05;1.90;;;1.50;;
39322;SDS011;25036;53.638;10.134;2022-12-07T03:09:13;1.90;;;1.50;;
39322;SDS011;25036;53.638;10.134;2022-12-07T03:11:37;3.00;;;1.63;;
39322;SDS011;25036;53.638;10.134;2022-12-07T03:12:44;3.15;;;1.63;;
39322;SDS011;25036;53.638;10.134;2022-12-07T03:13:56;2.85;;;1.45;;
39322;SDS011;25036;53.638;10.134;2022-12-07T03:15:02;1.88;;;1.40;;
39322;SDS011;25036;53.638;10.134;2022-12-07T03:17:12;3.33;;;1.73;;
39322;SDS011;25036;53.638;10.134;2022-12-07T03:18:15;2.70;;;1.50;;
39322;SDS011;25036;53.638;10.134;2022-12-07T03:19:17;2.10;;;1.17;;
39322;SDS011;25036;53.638;10.134;2022-12-07T03:20:19;1.30;;;1.10;;
39322;SDS011;25036;53.638;10.134;2022-12-07T03:21:21;2.17;;;1.40;;
39322;SDS011;25036;53.638;10.134;2022-12-07T03:22:23;3.92;;;1.85;;
39322;SDS011;25036;53.638;10.134;2022-12-07T03:23:23;3.30;;;1.40;;
39322;SDS011;25036;53.638;10.134;2022-12-07T03:24:26;1.95;;;1.33;;
39322;SDS011;25036;53.638;10.134;2022-12-07T03:25:27;4.28;;;1.38;;
39322;SDS011;25036;53.638;10.134;2022-12-07T03:26:31;3.15;;;1.35;;
39322;SDS011;25036;53.638;10.134;2022-12-07T03:27:35;2.45;;;1.30;;
39322;SDS011;25036;53.638;10.134;2022-12-07T03:28:36;1.20;;;0.93;;
39322;SDS011;25036;53.638;10.134;2022-12-07T03:29:39;2.83;;;1.33;;
39322;SDS011;25036;53.638;10.134;2022-12-07T03:30:43;2.25;;;1.40;;
39322;SDS011;25036;53.638;10.134;2022-12-07T03:31:46;1.75;;;1.27;;
39322;SDS011;25036;53.638;10.134;2022-12-07T03:32:53;1.92;;;1.05;;
39322;SDS011;25036;53.638;10.134;2022-12-07T03:33:57;1.45;;;1.13;;
39322;SDS011;25036;53.638;10.134;2022-12-07T03:35:01;1.83;;;1.40;;
39322;SDS011;25036;53.638;10.134;2022-12-07T03:37:04;2.20;;;1.10;;
39322;SDS011;25036;53.638;10.134;2022-12-07T03:38:12;1.48;;;0.95;;
39322;SDS011;25036;53.638;10.134;2022-12-07T03:39:27;1.60;;;1.10;;
39322;SDS011;25036;53.638;10.134;2022-12-07T03:41:30;1.20;;;1.10;;
39322;SDS011;25036;53.638;10.134;2022-12-07T03:42:31;1.15;;;0.98;;
39322;SDS011;25036;53.638;10.134;2022-12-07T03:43:32;3.13;;;1.00;;
39322;SDS011;25036;53.638;10.134;2022-12-07T03:44:32;3.10;;;0.80;;
39322;SDS011;25036;53.638;10.134;2022-12-07T03:45:44;1.33;;;0.93;;
39322;SDS011;25036;53.638;10.134;2022-12-07T03:46:51;2.60;;;1.10;;
39322;SDS011;25036;53.638;10.134;2022-12-07T03:48:07;2.10;;;0.90;;
39322;SDS011;25036;53.638;10.134;2022-12-07T03:50:31;1.52;;;0.88;;
39322;SDS011;25036;53.638;10.134;2022-12-07T03:52:54;2.08;;;0.80;;
39322;SDS011;25036;53.638;10.134;2022-12-07T03:54:00;0.52;;;0.52;;
39322;SDS011;25036;53.638;10.134;2022-12-07T03:55:06;1.10;;;0.68;;
39322;SDS011;25036;53.638;10.134;2022-12-07T03:56:08;1.67;;;0.82;;
39322;SDS011;25036;53.638;10.134;2022-12-07T03:57:09;0.90;;;0.70;;
39322;SDS011;25036;53.638;10.134;2022-12-07T03:58:14;1.02;;;0.60;;
39322;SDS011;25036;53.638;10.134;2022-12-07T03:59:15;2.15;;;1.13;;
39322;SDS011;25036;53.638;10.134;2022-12-07T04:00:17;1.27;;;0.70;;
39322;SDS011;25036;53.638;10.134;2022-12-07T04:01:18;1.85;;;0.80;;
39322;SDS011;25036;53.638;10.134;2022-12-07T04:02:18;0.93;;;0.63;;
39322;SDS011;25036;53.638;10.134;2022-12-07T04:03:18;1.25;;;0.60;;
39322;SDS011;25036;53.638;10.134;2022-12-07T04:04:18;1.98;;;0.80;;
39322;SDS011;25036;53.638;10.134;2022-12-07T04:05:19;1.20;;;0.97;;
39322;SDS011;25036;53.638;10.134;2022-12-07T04:06:19;0.95;;;0.77;;
39322;SDS011;25036;53.638;10.134;2022-12-07T04:07:19;1.43;;;1.07;;
39322;SDS011;25036;53.638;10.134;2022-12-07T04:08:19;1.63;;;0.63;;
39322;SDS011;25036;53.638;10.134;2022-12-07T04:09:20;2.03;;;0.97;;
39322;SDS011;25036;53.638;10.134;2022-12-07T04:10:21;1.33;;;0.63;;
39322;SDS011;25036;53.638;10.134;2022-12-07T04:11:21;1.73;;;0.70;;
39322;SDS011;25036;53.638;10.134;2022-12-07T04:12:22;0.90;;;0.60;;
39322;SDS011;25036;53.638;10.134;2022-12-07T04:13:22;1.27;;;0.65;;
39322;SDS011;25036;53.638;10.134;2022-12-07T04:14:22;2.22;;;0.77;;
39322;SDS011;25036;53.638;10.134;2022-12-07T04:15:22;2.72;;;0.65;;
39322;SDS011;25036;53.638;10.134;2022-12-07T04:16:22;1.33;;;0.60;;
39322;SDS011;25036;53.638;10.134;2022-12-07T04:17:23;1.10;;;0.53;;
39322;SDS011;25036;53.638;10.134;2022-12-07T04:18:23;0.60;;;0.50;;
39322;SDS011;25036;53.638;10.134;2022-12-07T04:19:27;2.23;;;0.80;;
39322;SDS011;25036;53.638;10.134;2022-12-07T04:20:27;0.88;;;0.60;;
39322;SDS011;25036;53.638;10.134;2022-12-07T04:21:28;1.70;;;0.65;;
39322;SDS011;25036;53.638;10.134;2022-12-07T04:22:28;0.93;;;0.73;;
39322;SDS011;25036;53.638;10.134;2022-12-07T04:23:28;2.78;;;0.93;;
39322;SDS011;25036;53.638;10.134;2022-12-07T04:24:28;2.00;;;0.70;;
39322;SDS011;25036;53.638;10.134;2022-12-07T04:25:28;2.10;;;0.63;;
39322;SDS011;25036;53.638;10.134;2022-12-07T04:26:29;1.13;;;0.50;;
39322;SDS011;25036;53.638;10.134;2022-12-07T04:27:29;1.33;;;0.77;;
39322;SDS011;25036;53.638;10.134;2022-12-07T04:28:29;1.15;;;0.60;;
39322;SDS011;25036;53.638;10.134;2022-12-07T04:29:29;1.47;;;1.07;;
39322;SDS011;25036;53.638;10.134;2022-12-07T04:30:29;0.93;;;0.70;;
39322;SDS011;25036;53.638;10.134;2022-12-07T04:31:30;1.10;;;0.60;;
39322;SDS011;25036;53.638;10.134;2022-12-07T04:32:30;0.70;;;0.65;;
39322;SDS011;25036;53.638;10.134;2022-12-07T04:33:30;1.48;;;0.50;;
39322;SDS011;25036;53.638;10.134;2022-12-07T04:34:30;2.13;;;0.80;;
39322;SDS011;25036;53.638;10.134;2022-12-07T04:35:30;1.38;;;0.70;;
39322;SDS011;25036;53.638;10.134;2022-12-07T04:36:31;1.30;;;0.80;;
39322;SDS011;25036;53.638;10.134;2022-12-07T04:37:31;2.22;;;0.70;;
39322;SDS011;25036;53.638;10.134;2022-12-07T04:38:31;1.83;;;0.63;;
39322;SDS011;25036;53.638;10.134;2022-12-07T04:39:32;0.90;;;0.70;;
39322;SDS011;25036;53.638;10.134;2022-12-07T04:40:32;1.73;;;0.70;;
39322;SDS011;25036;53.638;10.134;2022-12-07T04:41:32;1.70;;;1.03;;
39322;SDS011;25036;53.638;10.134;2022-12-07T04:42:32;1.65;;;1.15;;
39322;SDS011;25036;53.638;10.134;2022-12-07T04:43:33;0.98;;;0.70;;
39322;SDS011;25036;53.638;10.134;2022-12-07T04:44:33;1.35;;;0.88;;
39322;SDS011;25036;53.638;10.134;2022-12-07T04:45:33;2.45;;;0.70;;
39322;SDS011;25036;53.638;10.134;2022-12-07T04:46:33;2.43;;;0.97;;
39322;SDS011;25036;53.638;10.134;2022-12-07T04:47:33;2.10;;;1.03;;
39322;SDS011;25036;53.638;10.134;2022-12-07T04:48:33;1.53;;;1.03;;
39322;SDS011;25036;53.638;10.134;2022-12-07T04:49:33;1.20;;;0.90;;
39322;SDS011;25036;53.638;10.134;2022-12-07T04:50:35;1.00;;;0.73;;
39322;SDS011;25036;53.638;10.134;2022-12-07T04:51:35;1.00;;;0.80;;
39322;SDS011;25036;53.638;10.134;2022-12-07T04:52:35;2.45;;;1.38;;
39322;SDS011;25036;53.638;10.134;2022-12-07T04:53:35;1.73;;;0.90;;
39322;SDS011;25036;53.638;10.134;2022-12-07T04:54:35;2.20;;;1.20;;
39322;SDS011;25036;53.638;10.134;2022-12-07T04:55:36;1.77;;;1.00;;
39322;SDS011;25036;53.638;10.134;2022-12-07T04:56:36;1.33;;;0.80;;
39322;SDS011;25036;53.638;10.134;2022-12-07T04:57:36;1.30;;;0.97;;
39322;SDS011;25036;53.638;10.134;2022-12-07T04:58:36;2.00;;;0.90;;
39322;SDS011;25036;53.638;10.134;2022-12-07T04:59:36;1.83;;;1.10;;
39322;SDS011;25036;53.638;10.134;2022-12-07T05:00:36;2.20;;;1.20;;
39322;SDS011;25036;53.638;10.134;2022-12-07T05:01:37;1.80;;;0.90;;
39322;SDS011;25036;53.638;10.134;2022-12-07T05:02:37;1.98;;;1.23;;
39322;SDS011;25036;53.638;10.134;2022-12-07T05:03:37;1.58;;;0.90;;
39322;SDS011;25036;53.638;10.134;2022-12-07T05:04:38;1.23;;;1.13;;
39322;SDS011;25036;53.638;10.134;2022-12-07T05:05:40;2.23;;;1.17;;
39322;SDS011;25036;53.638;10.134;2022-12-07T05:06:40;1.63;;;0.95;;
39322;SDS011;25036;53.638;10.134;2022-12-07T05:07:40;2.73;;;1.10;;
39322;SDS011;25036;53.638;10.134;2022-12-07T05:08:40;2.50;;;1.20;;
39322;SDS011;25036;53.638;10.134;2022-12-07T05:09:41;1.13;;;0.75;;
39322;SDS011;25036;53.638;10.134;2022-12-07T05:10:41;2.23;;;1.23;;
39322;SDS011;25036;53.638;10.134;2022-12-07T05:11:41;1.33;;;0.93;;
39322;SDS011;25036;53.638;10.134;2022-12-07T05:12:41;1.42;;;0.95;;
39322;SDS011;25036;53.638;10.134;2022-12-07T05:13:41;2.00;;;1.00;;
39322;SDS011;25036;53.638;10.134;2022-12-07T05:14:42;2.33;;;1.05;;
39322;SDS011;25036;53.638;10.134;2022-12-07T05:15:42;1.30;;;1.08;;
39322;SDS011;25036;53.638;10.134;2022-12-07T05:16:44;1.38;;;1.02;;
39322;SDS011;25036;53.638;10.134;2022-12-07T05:17:45;1.63;;;1.00;;
39322;SDS011;25036;53.638;10.134;2022-12-07T05:18:45;1.00;;;0.97;;
39322;SDS011;25036;53.638;10.134;2022-12-07T05:19:45;1.33;;;0.93;;
39322;SDS011;25036;53.638;10.134;2022-12-07T05:20:45;1.57;;;0.90;;
39322;SDS011;25036;53.638;10.134;2022-12-07T05:21:46;1.83;;;1.08;;
39322;SDS011;25036;53.638;10.134;2022-12-07T05:22:46;1.33;;;1.15;;
39322;SDS011;25036;53.638;10.134;2022-12-07T05:23:47;1.70;;;0.95;;
39322;SDS011;25036;53.638;10.134;2022-12-07T05:24:47;1.73;;;1.30;;
39322;SDS011;25036;53.638;10.134;2022-12-07T05:25:47;1.90;;;1.10;;
39322;SDS011;25036;53.638;10.134;2022-12-07T05:26:47;1.93;;;1.23;;
39322;SDS011;25036;53.638;10.134;2022-12-07T05:27:47;1.63;;;1.10;;
39322;SDS011;25036;53.638;10.134;2022-12-07T05:28:51;1.80;;;1.02;;
39322;SDS011;25036;53.638;10.134;2022-12-07T05:29:51;3.20;;;1.23;;
39322;SDS011;25036;53.638;10.134;2022-12-07T05:30:52;1.20;;;0.80;;
39322;SDS011;25036;53.638;10.134;2022-12-07T05:31:52;2.27;;;1.07;;
39322;SDS011;25036;53.638;10.134;2022-12-07T05:32:52;1.73;;;1.20;;
39322;SDS011;25036;53.638;10.134;2022-12-07T05:33:52;2.53;;;1.10;;
39322;SDS011;25036;53.638;10.134;2022-12-07T05:34:53;1.15;;;1.05;;
39322;SDS011;25036;53.638;10.134;2022-12-07T05:35:54;1.10;;;1.00;;
39322;SDS011;25036;53.638;10.134;2022-12-07T05:36:54;1.50;;;1.20;;
39322;SDS011;25036;53.638;10.134;2022-12-07T05:37:55;2.70;;;1.30;;
39322;SDS011;25036;53.638;10.134;2022-12-07T05:38:55;2.20;;;1.23;;
39322;SDS011;25036;53.638;10.134;2022-12-07T05:39:55;1.53;;;0.90;;
39322;SDS011;25036;53.638;10.134;2022-12-07T05:40:55;1.30;;;1.20;;
39322;SDS011;25036;53.638;10.134;2022-12-07T05:42:01;1.75;;;1.10;;
39322;SDS011;25036;53.638;10.134;2022-12-07T05:43:13;1.63;;;1.05;;
39322;SDS011;25036;53.638;10.134;2022-12-07T05:44:13;1.97;;;1.03;;
39322;SDS011;25036;53.638;10.134;2022-12-07T05:45:13;1.77;;;0.90;;
39322;SDS011;25036;53.638;10.134;2022-12-07T05:46:13;1.83;;;1.20;;
39322;SDS011;25036;53.638;10.134;2022-12-07T05:47:14;2.07;;;1.20;;
39322;SDS011;25036;53.638;10.134;2022-12-07T05:48:14;2.88;;;1.40;;
39322;SDS011;25036;53.638;10.134;2022-12-07T05:49:15;2.25;;;1.20;;
39322;SDS011;25036;53.638;10.134;2022-12-07T05:50:15;2.95;;;1.15;;
39322;SDS011;25036;53.638;10.134;2022-12-07T05:51:15;2.07;;;1.50;;
39322;SDS011;25036;53.638;10.134;2022-12-07T05:52:15;1.50;;;1.33;;
39322;SDS011;25036;53.638;10.134;2022-12-07T05:53:15;3.07;;;1.40;;
39322;SDS011;25036;53.638;10.134;2022-12-07T05:54:16;2.15;;;1.35;;
39322;SDS011;25036;53.638;10.134;2022-12-07T05:55:16;3.07;;;1.37;;
39322;SDS011;25036;53.638;10.134;2022-12-07T05:56:16;2.47;;;1.20;;
39322;SDS011;25036;53.638;10.134;2022-12-07T05:57:16;1.93;;;1.40;;
39322;SDS011;25036;53.638;10.134;2022-12-07T05:58:16;1.65;;;1.38;;
39322;SDS011;25036;53.638;10.134;2022-12-07T05:59:36;2.63;;;1.50;;
39322;SDS011;25036;53.638;10.134;2022-12-07T06:00:36;2.67;;;1.35;;
39322;SDS011;25036;53.638;10.134;2022-12-07T06:01:37;2.03;;;1.33;;
39322;SDS011;25036;53.638;10.134;2022-12-07T06:02:37;2.38;;;1.30;;
39322;SDS011;25036;53.638;10.134;2022-12-07T06:03:37;2.30;;;1.40;;
39322;SDS011;25036;53.638;10.134;2022-12-07T06:04:38;4.00;;;1.53;;
39322;SDS011;25036;53.638;10.134;2022-12-07T06:05:38;1.58;;;1.40;;
39322;SDS011;25036;53.638;10.134;2022-12-07T06:06:38;3.93;;;1.60;;
39322;SDS011;25036;53.638;10.134;2022-12-07T06:07:39;1.50;;;1.40;;
39322;SDS011;25036;53.638;10.134;2022-12-07T06:08:39;3.40;;;1.47;;
39322;SDS011;25036;53.638;10.134;2022-12-07T06:09:39;2.07;;;1.50;;
39322;SDS011;25036;53.638;10.134;2022-12-07T06:10:39;2.17;;;1.17;;
39322;SDS011;25036;53.638;10.134;2022-12-07T06:11:40;1.40;;;1.30;;
39322;SDS011;25036;53.638;10.134;2022-12-07T06:12:59;1.50;;;1.40;;
39322;SDS011;25036;53.638;10.134;2022-12-07T06:13:59;1.80;;;1.48;;
39322;SDS011;25036;53.638;10.134;2022-12-07T06:14:59;4.63;;;1.53;;
39322;SDS011;25036;53.638;10.134;2022-12-07T06:15:59;2.53;;;1.50;;
39322;SDS011;25036;53.638;10.134;2022-12-07T06:16:59;2.43;;;1.60;;
39322;SDS011;25036;53.638;10.134;2022-12-07T06:17:59;3.83;;;1.90;;
39322;SDS011;25036;53.638;10.134;2022-12-07T06:18:59;2.10;;;1.63;;
39322;SDS011;25036;53.638;10.134;2022-12-07T06:20:00;1.83;;;1.60;;
39322;SDS011;25036;53.638;10.134;2022-12-07T06:21:00;1.90;;;1.57;;
39322;SDS011;25036;53.638;10.134;2022-12-07T06:22:00;2.87;;;1.70;;
39322;SDS011;25036;53.638;10.134;2022-12-07T06:23:00;2.85;;;1.58;;
39322;SDS011;25036;53.638;10.134;2022-12-07T06:24:01;2.10;;;1.58;;
39322;SDS011;25036;53.638;10.134;2022-12-07T06:25:01;1.95;;;1.50;;
39322;SDS011;25036;53.638;10.134;2022-12-07T06:26:02;2.55;;;1.83;;
39322;SDS011;25036;53.638;10.134;2022-12-07T06:27:02;1.60;;;1.50;;
39322;SDS011;25036;53.638;10.134;2022-12-07T06:28:02;2.05;;;1.70;;
39322;SDS011;25036;53.638;10.134;2022-12-07T06:29:02;2.60;;;1.60;;
39322;SDS011;25036;53.638;10.134;2022-12-07T06:30:03;2.13;;;1.55;;
39322;SDS011;25036;53.638;10.134;2022-12-07T06:31:06;3.08;;;1.88;;
39322;SDS011;25036;53.638;10.134;2022-12-07T06:32:07;3.00;;;1.50;;